createdAt,value
2023-02-24T00:02:01.512Z,26.83
2023-02-24T00:04:31.085Z,26.42
2023-02-24T00:06:57.740Z,26.17
2023-02-24T00:09:26.378Z,27.23
2023-02-24T00:11:59.606Z,28.67
2023-02-24T00:14:35.267Z,24.25
2023-02-24T00:17:02.712Z,29.20
2023-02-24T00:19:32.787Z,29.00
2023-02-24T00:22:00.160Z,27.13
2023-02-24T00:24:27.309Z,25.02
2023-02-24T00:26:59.562Z,27.77
2023-02-24T00:29:28.265Z,31.23
2023-02-24T00:32:00.641Z,28.70
2023-02-24T00:34:28.907Z,26.45
2023-02-24T00:36:57.412Z,31.30
2023-02-24T00:39:35.786Z,31.60
2023-02-24T00:42:06.817Z,29.42
2023-02-24T00:44:39.523Z,25.85
2023-02-24T00:47:08.961Z,29.45
2023-02-24T00:49:36.348Z,29.17
2023-02-24T00:52:06.671Z,28.75
2023-02-24T00:54:36.543Z,28.08
2023-02-24T00:57:03.405Z,27.70
2023-02-24T00:59:30.227Z,35.58
2023-02-24T01:01:56.865Z,27.98
2023-02-24T01:04:23.491Z,27.65
2023-02-24T01:06:52.578Z,29.25
2023-02-24T01:09:21.048Z,34.85
2023-02-24T01:12:07.800Z,26.98
2023-02-24T01:14:35.648Z,35.30
2023-02-24T01:17:03.622Z,32.08
2023-02-24T01:19:32.041Z,29.55
2023-02-24T01:22:03.808Z,35.42
2023-02-24T01:24:38.124Z,34.95
2023-02-24T01:27:07.673Z,31.35
2023-02-24T01:29:39.569Z,36.22
2023-02-24T01:32:17.238Z,34.65
2023-02-24T01:34:44.720Z,39.45
2023-02-24T01:37:16.687Z,34.83
2023-02-24T01:39:47.214Z,36.47
2023-02-24T01:42:17.145Z,35.90
2023-02-24T01:44:43.791Z,31.15
2023-02-24T01:47:11.077Z,33.30
2023-02-24T01:49:43.734Z,32.83
2023-02-24T01:52:31.607Z,34.25
2023-02-24T01:55:29.177Z,35.20
2023-02-24T01:57:56.366Z,31.73
2023-02-24T02:00:38.322Z,34.42
2023-02-24T02:03:12.421Z,29.80
2023-02-24T02:05:40.448Z,31.75
2023-02-24T02:08:09.166Z,33.45
2023-02-24T02:10:40.784Z,37.65
2023-02-24T02:13:07.565Z,34.22
2023-02-24T02:15:44.262Z,36.10
2023-02-24T02:18:20.892Z,37.08
2023-02-24T02:20:59.809Z,39.58
2023-02-24T02:23:58.574Z,38.72
2023-02-24T02:26:54.048Z,38.78
2023-02-24T02:29:35.350Z,44.83
2023-02-24T02:32:17.360Z,41.67
2023-02-24T02:34:50.461Z,44.13
2023-02-24T02:37:37.470Z,44.42
2023-02-24T02:40:20.044Z,42.00
2023-02-24T02:42:47.600Z,40.50
2023-02-24T02:45:20.286Z,37.03
2023-02-24T02:48:15.394Z,42.17
2023-02-24T02:50:48.472Z,42.38
2023-02-24T02:53:19.978Z,42.45
2023-02-24T02:55:55.780Z,44.38
2023-02-24T02:58:26.620Z,41.53
2023-02-24T03:01:02.974Z,38.50
2023-02-24T03:03:34.182Z,36.58
2023-02-24T03:06:06.234Z,41.70
2023-02-24T03:08:37.315Z,42.60
2023-02-24T03:11:08.504Z,41.72
2023-02-24T03:13:38.044Z,38.75
2023-02-24T03:16:06.501Z,41.97
2023-02-24T03:18:39.581Z,40.28
2023-02-24T03:21:08.669Z,39.38
2023-02-24T03:23:47.725Z,36.00
2023-02-24T03:26:28.307Z,36.40
2023-02-24T03:28:55.670Z,39.35
2023-02-24T03:31:49.165Z,33.28
2023-02-24T03:34:19.875Z,38.25
2023-02-24T03:36:47.696Z,32.50
2023-02-24T03:39:15.999Z,37.30
2023-02-24T03:42:11.914Z,38.92
2023-02-24T03:44:39.088Z,36.75
2023-02-24T03:47:06.013Z,35.33
2023-02-24T03:49:32.971Z,35.33
2023-02-24T03:52:29.268Z,36.03
2023-02-24T03:55:09.375Z,39.58
2023-02-24T03:58:04.309Z,38.75
2023-02-24T04:00:46.689Z,41.30
2023-02-24T04:03:28.499Z,38.67
2023-02-24T04:06:38.707Z,41.50
2023-02-24T04:09:10.462Z,47.13
2023-02-24T04:12:17.204Z,45.88
2023-02-24T04:14:54.898Z,49.15
2023-02-24T04:17:35.392Z,44.75
2023-02-24T04:20:13.622Z,50.67
2023-02-24T04:22:49.056Z,45.15
2023-02-24T04:25:27.175Z,46.38
2023-02-24T04:27:58.563Z,52.72
2023-02-24T04:30:27.656Z,46.03
2023-02-24T04:32:54.397Z,52.67
2023-02-24T04:35:22.893Z,51.67
2023-02-24T04:37:50.906Z,50.35
2023-02-24T04:40:22.135Z,51.13
2023-02-24T04:42:50.491Z,47.08
2023-02-24T04:45:27.851Z,52.65
2023-02-24T04:48:00.991Z,44.10
2023-02-24T04:50:34.154Z,51.08
2023-02-24T04:53:10.010Z,51.15
2023-02-24T04:55:42.469Z,53.65
2023-02-24T04:58:13.645Z,54.38
2023-02-24T05:00:42.027Z,53.65
2023-02-24T05:03:11.686Z,57.05
2023-02-24T05:05:38.348Z,65.32
2023-02-24T05:08:06.949Z,57.80
2023-02-24T05:10:42.002Z,64.80
2023-02-24T05:13:11.169Z,56.13
2023-02-24T05:15:42.384Z,64.15
2023-02-24T05:18:14.092Z,56.90
2023-02-24T05:21:02.456Z,63.08
2023-02-24T05:23:39.399Z,61.15
2023-02-24T05:26:10.992Z,61.47
2023-02-24T05:28:40.838Z,61.33
2023-02-24T05:31:10.103Z,61.95
2023-02-24T05:33:43.794Z,56.45
2023-02-24T05:36:15.260Z,58.47
2023-02-24T05:38:41.919Z,54.78
2023-02-24T05:41:17.116Z,47.55
2023-02-24T05:43:53.057Z,58.38
2023-02-24T05:46:20.732Z,57.88
2023-02-24T05:48:51.219Z,61.30
2023-02-24T05:51:18.117Z,68.47
2023-02-24T05:53:44.771Z,66.50
2023-02-24T05:56:11.866Z,70.40
2023-02-24T05:58:39.363Z,70.28
2023-02-24T06:01:16.296Z,76.07
2023-02-24T06:03:46.794Z,79.32
2023-02-24T06:06:16.906Z,79.35
2023-02-24T06:08:50.087Z,80.57
2023-02-24T06:11:19.231Z,83.15
2023-02-24T06:13:50.113Z,82.28
2023-02-24T06:18:47.798Z,75.85
2023-02-24T06:21:14.375Z,83.75
2023-02-24T06:23:41.519Z,87.32
2023-02-24T06:26:13.203Z,80.28
2023-02-24T06:28:43.241Z,95.45
2023-02-24T06:31:11.073Z,86.35
2023-02-24T06:33:41.906Z,85.13
2023-02-24T06:36:08.673Z,85.90
2023-02-24T06:38:37.085Z,90.93
2023-02-24T06:41:10.802Z,76.68
2023-02-24T06:43:43.402Z,95.72
2023-02-24T06:46:12.532Z,84.65
2023-02-24T06:48:39.402Z,87.60
2023-02-24T06:51:06.911Z,93.82
2023-02-24T06:53:43.119Z,98.72
2023-02-24T06:56:20.539Z,90.60
2023-02-24T06:58:52.246Z,83.30
2023-02-24T07:01:26.789Z,91.60
2023-02-24T07:04:08.087Z,85.97
2023-02-24T07:06:38.371Z,101.28
2023-02-24T07:09:08.168Z,91.57
2023-02-24T07:11:35.647Z,93.90
2023-02-24T07:14:05.873Z,93.95
2023-02-24T07:16:34.666Z,98.57
2023-02-24T07:19:11.322Z,83.35
2023-02-24T07:21:43.330Z,92.63
2023-02-24T07:24:13.483Z,97.85
2023-02-24T07:26:41.784Z,101.85
2023-02-24T07:29:11.517Z,106.28
2023-02-24T07:31:39.058Z,100.63
2023-02-24T07:34:06.464Z,96.43
2023-02-24T07:36:38.984Z,106.38
2023-02-24T07:39:09.680Z,112.32
2023-02-24T07:41:37.167Z,107.25
2023-02-24T07:44:03.881Z,102.70
2023-02-24T07:46:31.513Z,100.82
2023-02-24T07:49:01.661Z,106.57
2023-02-24T07:51:29.501Z,97.13
2023-02-24T07:53:59.153Z,94.68
2023-02-24T07:56:27.812Z,102.65
2023-02-24T07:58:59.312Z,92.10
2023-02-24T08:01:38.972Z,86.70
2023-02-24T08:04:08.247Z,86.07
2023-02-24T08:06:45.458Z,94.65
2023-02-24T08:09:20.540Z,81.70
2023-02-24T08:11:55.505Z,79.13
2023-02-24T08:14:24.657Z,86.35
2023-02-24T08:16:53.371Z,81.13
2023-02-24T08:19:21.108Z,78.30
2023-02-24T08:21:52.945Z,74.60
2023-02-24T08:24:25.343Z,90.18
2023-02-24T08:27:04.407Z,83.22
2023-02-24T08:29:40.194Z,75.70
2023-02-24T08:32:09.482Z,78.50
2023-02-24T08:34:37.201Z,90.65
2023-02-24T08:37:04.628Z,83.00
2023-02-24T08:39:34.184Z,88.50
2023-02-24T08:42:00.794Z,72.63
2023-02-24T08:44:27.660Z,75.50
2023-02-24T08:46:55.436Z,81.13
2023-02-24T08:49:24.976Z,81.25
2023-02-24T08:51:53.086Z,89.28
2023-02-24T08:54:27.423Z,72.90
2023-02-24T08:57:08.077Z,73.50
2023-02-24T08:59:41.095Z,76.22
2023-02-24T09:02:27.277Z,69.78
2023-02-24T09:05:12.465Z,75.53
2023-02-24T09:07:41.956Z,70.13
2023-02-24T09:10:17.790Z,80.13
2023-02-24T09:12:44.846Z,72.82
2023-02-24T09:15:15.510Z,66.75
2023-02-24T09:17:45.669Z,68.13
2023-02-24T09:20:25.996Z,66.85
2023-02-24T09:23:07.802Z,68.03
2023-02-24T09:25:49.639Z,59.83
2023-02-24T09:28:20.983Z,60.38
2023-02-24T09:30:54.042Z,67.63
2023-02-24T09:33:39.103Z,66.32
2023-02-24T09:36:13.187Z,71.50
2023-02-24T09:39:00.857Z,62.88
2023-02-24T09:41:54.529Z,66.20
2023-02-24T09:44:33.618Z,63.30
2023-02-24T09:47:09.886Z,56.55
2023-02-24T09:49:59.102Z,60.17
2023-02-24T09:52:43.406Z,54.08
2023-02-24T09:55:26.972Z,62.75
2023-02-24T09:58:29.317Z,55.67
2023-02-24T10:01:21.453Z,61.85
2023-02-24T10:03:51.977Z,58.05
2023-02-24T10:06:26.815Z,53.78
2023-02-24T10:09:11.828Z,45.95
2023-02-24T10:12:04.006Z,54.20
2023-02-24T10:15:00.071Z,41.25
2023-02-24T10:17:40.277Z,49.97
2023-02-24T10:20:28.689Z,40.10
2023-02-24T10:25:42.898Z,38.75
2023-02-24T10:28:36.026Z,38.72
2023-02-24T10:31:25.709Z,34.47
2023-02-24T10:34:06.219Z,36.58
2023-02-24T10:36:36.181Z,31.08
2023-02-24T10:39:16.047Z,37.22
2023-02-24T10:41:57.573Z,32.35
2023-02-24T10:44:36.583Z,33.63
2023-02-24T10:47:14.295Z,34.67
2023-02-24T10:49:43.065Z,43.10
2023-02-24T10:52:29.409Z,36.38
2023-02-24T10:55:24.263Z,46.55
2023-02-24T10:58:05.980Z,42.75
2023-02-24T11:01:04.210Z,50.35
2023-02-24T11:03:41.777Z,44.83
2023-02-24T11:06:40.682Z,51.17
2023-02-24T11:09:19.730Z,45.38
2023-02-24T11:12:05.344Z,42.47
2023-02-24T11:14:58.101Z,48.78
2023-02-24T11:17:28.027Z,50.47
2023-02-24T11:19:58.494Z,54.08
2023-02-24T11:22:32.748Z,46.55
2023-02-24T11:25:05.940Z,40.65
2023-02-24T11:27:32.889Z,47.00
2023-02-24T11:30:22.804Z,46.90
2023-02-24T11:33:14.219Z,46.63
2023-02-24T11:35:46.926Z,49.75
2023-02-24T11:38:17.926Z,46.58
2023-02-24T11:40:48.658Z,44.47
2023-02-24T11:43:22.368Z,50.95
2023-02-24T11:46:09.672Z,44.42
2023-02-24T11:48:43.168Z,50.17
2023-02-24T11:51:23.661Z,48.17
2023-02-24T11:54:00.250Z,48.75
2023-02-24T11:59:22.398Z,46.20
2023-02-24T12:02:17.090Z,47.80
2023-02-24T12:04:52.227Z,48.58
2023-02-24T12:07:28.490Z,44.92
2023-02-24T12:10:14.154Z,35.20
2023-02-24T12:13:02.089Z,46.08
2023-02-24T12:15:32.073Z,43.58
2023-02-24T12:18:24.267Z,46.08
2023-02-24T12:20:56.035Z,48.58
2023-02-24T12:23:29.649Z,43.90
2023-02-24T12:26:17.070Z,51.72
2023-02-24T12:29:08.232Z,46.42
2023-02-24T12:31:54.394Z,49.65
2023-02-24T12:34:35.576Z,45.53
2023-02-24T12:37:22.476Z,47.95
2023-02-24T12:39:57.158Z,40.80
2023-02-24T12:42:45.307Z,40.10
2023-02-24T12:45:34.031Z,39.35
2023-02-24T12:48:19.333Z,44.45
2023-02-24T12:50:53.010Z,38.63
2023-02-24T12:53:23.445Z,35.65
2023-02-24T12:56:09.437Z,39.90
2023-02-24T12:58:38.443Z,38.58
2023-02-24T13:01:24.732Z,37.83
2023-02-24T13:04:34.649Z,35.53
2023-02-24T13:07:37.153Z,35.20
2023-02-24T13:10:30.480Z,37.63
2023-02-24T13:13:06.469Z,37.35
2023-02-24T13:15:34.594Z,31.33
2023-02-24T13:18:01.361Z,42.45
2023-02-24T13:20:34.551Z,34.33
2023-02-24T13:23:04.934Z,32.50
2023-02-24T13:25:34.459Z,32.13
2023-02-24T13:28:06.460Z,35.55
2023-02-24T13:30:41.427Z,37.65
2023-02-24T13:33:17.096Z,42.47
2023-02-24T13:35:43.844Z,33.95
2023-02-24T13:38:23.946Z,41.85
2023-02-24T13:40:50.959Z,40.20
2023-02-24T13:43:27.469Z,43.28
2023-02-24T13:48:47.931Z,37.72
2023-02-24T13:51:51.585Z,41.08
2023-02-24T13:54:39.461Z,34.90
2023-02-24T13:57:18.026Z,34.33
2023-02-24T13:59:57.722Z,32.05
2023-02-24T14:02:29.672Z,37.92
2023-02-24T14:04:58.523Z,33.35
2023-02-24T14:07:27.995Z,36.00
2023-02-24T14:09:58.130Z,35.97
2023-02-24T14:12:30.597Z,32.60
2023-02-24T14:14:57.864Z,30.80
2023-02-24T14:17:28.889Z,32.63
2023-02-24T14:20:08.017Z,37.10
2023-02-24T14:22:37.563Z,31.50
2023-02-24T14:25:05.475Z,28.95
2023-02-24T14:27:32.269Z,36.17
2023-02-24T14:29:58.870Z,34.15
2023-02-24T14:32:27.537Z,31.73
2023-02-24T14:34:54.480Z,30.58
2023-02-24T14:37:26.539Z,32.33
2023-02-24T14:40:00.804Z,24.30
2023-02-24T14:42:28.151Z,28.88
2023-02-24T14:44:57.560Z,28.58
2023-02-24T14:47:28.067Z,28.45
2023-02-24T14:52:48.387Z,29.63
2023-02-24T14:55:21.482Z,26.33
2023-02-24T14:57:56.659Z,30.25
2023-02-24T15:00:53.716Z,28.85
2023-02-24T15:03:34.224Z,26.92
2023-02-24T15:06:06.296Z,29.98
2023-02-24T15:08:42.711Z,27.15
2023-02-24T15:11:21.683Z,27.10
2023-02-24T15:13:50.193Z,26.85
2023-02-24T15:16:24.307Z,29.48
2023-02-24T15:19:01.006Z,23.25
2023-02-24T15:21:47.194Z,24.85
2023-02-24T15:24:19.077Z,23.17
2023-02-24T15:27:14.151Z,25.77
2023-02-24T15:29:42.964Z,23.90
2023-02-24T15:32:30.853Z,22.85
2023-02-24T15:35:08.669Z,26.48
2023-02-24T15:37:42.024Z,25.92
2023-02-24T15:40:21.724Z,24.90
2023-02-24T15:43:09.398Z,25.77
2023-02-24T15:45:38.762Z,22.15
2023-02-24T15:48:20.377Z,26.13
2023-02-24T15:50:47.293Z,26.02
2023-02-24T15:53:14.212Z,22.55
2023-02-24T15:55:41.962Z,22.85
2023-02-24T15:58:17.501Z,23.42
2023-02-24T16:00:45.456Z,29.02
2023-02-24T16:03:12.592Z,20.17
2023-02-24T16:09:36.696Z,26.83
2023-02-24T16:15:17.067Z,27.17
2023-02-24T16:17:43.943Z,24.58
2023-02-24T16:20:27.559Z,24.77
2023-02-24T16:22:56.413Z,24.55
2023-02-24T16:25:23.781Z,25.88
2023-02-24T16:27:57.682Z,25.58
2023-02-24T16:30:30.744Z,28.88
2023-02-24T16:32:58.890Z,27.13
2023-02-24T16:35:26.980Z,31.23
2023-02-24T16:37:54.110Z,29.30
2023-02-24T16:40:30.970Z,29.60
2023-02-24T16:42:57.931Z,31.35
2023-02-24T16:45:29.019Z,26.80
2023-02-24T16:48:01.897Z,28.17
2023-02-24T16:50:34.288Z,33.95
2023-02-24T16:53:01.598Z,34.70
